Time;durP1;ratioP1;P1;durP2;ratioP2;P2;SDS_P1;SDS_P2;PMS_P1;PMS_P2;Temp;Humidity;BMP_temperature;BMP_pressure;BME280_temperature;BME280_humidity;BME280_pressure;Samples;Min_cycle;Max_cycle;Signal;HPM_P1;HPM_P2
2021/04/26 00:02:13;;;;;;;4.78;3.95;;;;;;;7.21;42.98;95465.81;5068887;28;20027;-61
2021/04/26 00:04:39;;;;;;;4.93;3.88;;;;;;;7.47;43.07;95515.94;5051800;28;20048;-61
2021/04/26 00:07:04;;;;;;;4.97;3.10;;;;;;;7.15;43.16;95477.50;5051032;28;20125;-60
2021/04/26 00:09:30;;;;;;;4.55;3.58;;;;;;;7.54;42.68;95532.31;5051709;28;20075;-60
2021/04/26 00:11:55;;;;;;;6.13;3.97;;;;;;;7.43;43.11;95523.66;5051381;28;20041;-61
2021/04/26 00:14:21;;;;;;;6.03;3.30;;;;;;;7.40;43.09;95505.66;5053541;28;20029;-61
2021/04/26 00:16:46;;;;;;;4.05;3.25;;;;;;;7.39;43.49;95511.25;5051319;28;20041;-60
2021/04/26 00:19:12;;;;;;;6.72;3.92;;;;;;;7.24;43.39;95493.59;5051388;28;20041;-60
2021/04/26 00:21:37;;;;;;;5.95;4.10;;;;;;;7.22;43.90;95498.38;5049804;28;20075;-60
2021/04/26 00:24:03;;;;;;;6.05;3.47;;;;;;;7.09;44.07;95497.13;5051445;28;20041;-60
2021/04/26 00:26:28;;;;;;;7.38;3.70;;;;;;;6.95;44.61;95475.75;5050065;28;20031;-61
2021/04/26 00:28:54;;;;;;;8.13;3.33;;;;;;;6.68;45.88;95478.78;5053186;28;20025;-61
2021/04/26 00:31:19;;;;;;;7.88;4.20;;;;;;;6.71;45.64;95480.13;5049534;28;20524;-61
2021/04/26 00:33:45;;;;;;;7.82;3.97;;;;;;;6.77;45.77;95479.03;5060494;28;20040;-60
2021/04/26 00:36:11;;;;;;;4.00;3.45;;;;;;;6.85;45.23;95478.44;5069939;28;20064;-61
2021/04/26 00:38:36;;;;;;;5.57;3.90;;;;;;;6.77;45.58;95466.59;5069839;28;20394;-61
2021/04/26 00:41:02;;;;;;;6.65;3.60;;;;;;;6.53;45.65;95426.00;5072920;28;20024;-60
2021/04/26 00:43:27;;;;;;;6.05;4.00;;;;;;;6.84;45.97;95457.56;5070739;28;20117;-61
2021/04/26 00:45:53;;;;;;;5.35;3.25;;;;;;;6.48;47.03;95457.72;5069721;28;20036;-62
2021/04/26 00:48:18;;;;;;;8.02;3.75;;;;;;;6.48;46.76;95442.66;5069449;28;20047;-61
2021/04/26 00:50:43;;;;;;;8.30;3.65;;;;;;;6.59;46.75;95447.91;5070844;28;20507;-62
2021/04/26 00:53:10;;;;;;;5.72;3.80;;;;;;;6.23;48.03;95430.31;5072829;28;20027;-61
2021/04/26 00:55:38;;;;;;;6.43;4.20;;;;;;;6.39;47.37;95459.31;5071016;28;20063;-61
2021/04/26 00:58:03;;;;;;;5.60;3.75;;;;;;;6.25;48.00;95425.56;5070750;28;20044;-61
2021/04/26 01:00:30;;;;;;;8.43;4.07;;;;;;;6.51;47.17;95455.34;5070780;28;20104;-61
2021/04/26 01:02:56;;;;;;;6.97;4.32;;;;;;;6.12;48.18;95433.25;5069067;28;20125;-60
2021/04/26 01:05:24;;;;;;;5.15;4.03;;;;;;;6.19;48.38;95461.00;5071444;28;20103;-61
2021/04/26 01:07:50;;;;;;;5.63;4.40;;;;;;;6.29;48.18;95454.06;5070952;28;20051;-60
2021/04/26 01:10:20;;;;;;;6.30;3.97;;;;;;;5.95;48.77;95415.88;5070750;28;20409;-61
2021/04/26 01:12:54;;;;;;;7.93;4.00;;;;;;;6.16;48.99;95456.22;5070387;28;20032;-61
2021/04/26 01:15:25;;;;;;;5.88;4.35;;;;;;;5.83;49.12;95417.16;5069309;28;20117;-60
2021/04/26 01:17:58;;;;;;;5.05;4.00;;;;;;;5.85;49.47;95444.91;5070363;28;20040;-60
2021/04/26 01:20:33;;;;;;;6.53;4.15;;;;;;;6.04;49.89;95442.53;5072285;28;20466;-60
2021/04/26 01:23:40;;;;;;;5.28;3.88;;;;;;;6.03;49.92;95434.84;5070524;28;20040;-61
2021/04/26 01:26:05;;;;;;;7.00;4.38;;;;;;;5.95;50.19;95436.22;5031872;28;20044;-61
2021/04/26 01:28:56;;;;;;;6.28;4.20;;;;;;;5.93;49.96;95435.66;5068846;28;20111;-60
2021/04/26 01:31:37;;;;;;;8.23;4.40;;;;;;;5.98;49.55;95422.44;5068696;28;20410;-61
2021/04/26 01:34:04;;;;;;;5.43;4.25;;;;;;;5.96;49.57;95416.66;5070000;28;20071;-62
2021/04/26 01:36:30;;;;;;;4.75;4.07;;;;;;;6.01;49.61;95416.66;5070255;28;20040;-59
2021/04/26 01:38:58;;;;;;;6.20;4.35;;;;;;;5.87;50.25;95424.28;5069793;28;20548;-60
2021/04/26 01:41:26;;;;;;;8.73;4.85;;;;;;;5.60;50.76;95381.59;5071634;28;20170;-61
2021/04/26 01:43:54;;;;;;;6.30;4.15;;;;;;;6.01;50.39;95416.66;5085889;28;20071;-60
2021/04/26 01:46:21;;;;;;;5.18;4.50;;;;;;;5.64;51.13;95387.91;5085418;28;20487;-61
2021/04/26 01:48:49;;;;;;;8.98;5.63;;;;;;;5.42;51.86;95385.53;5069617;28;20147;-60
2021/04/26 01:51:15;;;;;;;7.25;4.60;;;;;;;5.61;51.49;95399.78;5069318;28;20198;-61
2021/04/26 01:53:43;;;;;;;4.40;4.00;;;;;;;5.64;51.64;95412.47;5069362;28;20036;-60
2021/04/26 01:56:11;;;;;;;6.80;4.70;;;;;;;5.61;51.63;95391.88;5071586;28;20028;-60
2021/04/26 01:58:41;;;;;;;6.10;4.70;;;;;;;5.55;51.83;95392.94;5067985;28;20486;-61
2021/04/26 02:01:08;;;;;;;7.60;5.10;;;;;;;5.64;52.12;95415.09;5068160;28;20069;-60
2021/04/26 02:03:34;;;;;;;9.35;5.03;;;;;;;5.44;51.88;95378.97;5067965;28;20117;-60
2021/04/26 02:06:01;;;;;;;4.95;4.30;;;;;;;5.55;51.38;95377.09;5069426;28;20036;-59
2021/04/26 02:08:27;;;;;;;7.43;5.07;;;;;;;5.62;52.68;95406.63;5067919;28;20031;-61
2021/04/26 02:10:53;;;;;;;6.80;4.78;;;;;;;5.44;52.22;95362.34;5071399;28;20244;-61
2021/04/26 02:13:25;;;;;;;7.22;4.85;;;;;;;5.60;52.49;95397.41;5067756;28;20170;-60
2021/04/26 02:15:55;;;;;;;7.38;4.90;;;;;;;5.46;53.21;95400.59;5067436;28;20052;-59
2021/04/26 02:18:21;;;;;;;9.00;5.38;;;;;;;5.51;53.43;95406.91;5068943;28;20029;-60
2021/04/26 02:20:47;;;;;;;9.88;5.85;;;;;;;5.20;53.59;95391.09;5069073;28;20037;-61
2021/04/26 02:23:12;;;;;;;6.45;4.97;;;;;;;5.43;53.72;95408.25;5070326;28;20024;-61
2021/04/26 02:25:38;;;;;;;8.48;4.70;;;;;;;5.29;53.57;95378.97;5068084;28;20044;-60
2021/04/26 02:28:03;;;;;;;8.82;5.80;;;;;;;5.46;53.93;95415.63;5066991;28;20055;-60
2021/04/26 02:30:29;;;;;;;7.13;5.63;;;;;;;5.52;53.38;95419.06;5069203;28;20020;-60
2021/04/26 02:32:57;;;;;;;5.97;5.38;;;;;;;5.44;53.71;95413.25;5068629;28;20436;-59
2021/04/26 02:35:54;;;;;;;7.68;5.18;;;;;;;5.46;53.58;95403.22;5070924;28;20055;-61
2021/04/26 02:38:30;;;;;;;6.00;4.65;;;;;;;5.35;53.87;95388.47;5052614;28;20135;-60
2021/04/26 02:41:06;;;;;;;11.13;5.47;;;;;;;5.10;54.91;95370.78;5069270;28;20086;-60
2021/04/26 02:43:37;;;;;;;7.28;5.20;;;;;;;5.01;54.95;95361.03;5067424;28;20047;-61
2021/04/26 02:46:06;;;;;;;6.20;4.97;;;;;;;5.31;54.11;95386.63;5084261;28;20469;-61
2021/04/26 02:48:32;;;;;;;8.75;5.18;;;;;;;4.99;55.43;95363.13;5068571;28;20390;-60
2021/04/26 02:51:00;;;;;;;6.60;5.28;;;;;;;5.05;55.39;95362.09;5068736;28;20024;-61
2021/04/26 02:53:28;;;;;;;13.85;5.43;;;;;;;5.11;55.40;95384.75;5068345;28;20025;-63
2021/04/26 02:55:59;;;;;;;12.90;4.90;;;;;;;5.15;55.32;95376.06;5070763;28;20523;-61
2021/04/26 02:58:26;;;;;;;10.25;5.22;;;;;;;5.20;55.28;95367.38;5068477;28;20044;-61
2021/04/26 03:00:52;;;;;;;7.53;5.75;;;;;;;5.16;55.31;95368.94;5068551;28;20037;-60
2021/04/26 03:03:19;;;;;;;5.90;4.72;;;;;;;5.14;55.10;95371.84;5066969;28;20127;-61
2021/04/26 03:05:48;;;;;;;8.52;4.63;;;;;;;4.82;55.42;95323.88;5068672;28;20048;-61
2021/04/26 03:08:15;;;;;;;8.50;5.25;;;;;;;4.95;56.07;95349.69;5069057;28;20043;-60
2021/04/26 03:10:41;;;;;;;9.13;5.35;;;;;;;4.78;56.13;95342.03;5067262;28;20049;-61
2021/04/26 03:13:06;;;;;;;7.00;4.97;;;;;;;4.91;55.91;95338.91;5068216;28;20075;-60
2021/04/26 03:15:33;;;;;;;7.05;4.70;;;;;;;4.52;56.94;95309.59;5067220;28;20516;-60
2021/04/26 03:18:01;;;;;;;7.05;5.07;;;;;;;4.77;56.44;95334.41;5067183;28;20122;-61
2021/04/26 03:20:27;;;;;;;8.50;5.82;;;;;;;4.95;55.82;95349.69;5068248;28;20130;-62
2021/04/26 03:22:53;;;;;;;11.38;5.10;;;;;;;5.00;55.79;95346.25;5070101;28;20314;-61
2021/04/26 03:25:23;;;;;;;6.97;5.30;;;;;;;4.98;55.91;95333.34;5069118;28;20049;-60
2021/04/26 03:27:52;;;;;;;8.35;4.78;;;;;;;4.80;56.60;95333.84;5071048;28;20501;-59
2021/04/26 03:30:21;;;;;;;7.20;4.95;;;;;;;4.74;56.50;95316.47;5072682;28;20065;-61
2021/04/26 03:32:48;;;;;;;9.98;5.47;;;;;;;4.82;56.79;95334.41;5072207;28;20043;-61
2021/04/26 03:35:15;;;;;;;10.38;5.78;;;;;;;4.74;56.85;95327.00;5074539;28;20032;-60
2021/04/26 03:37:44;;;;;;;8.10;5.28;;;;;;;4.47;57.27;95293.78;5070813;28;20478;-60
2021/04/26 03:40:10;;;;;;;10.95;6.10;;;;;;;4.56;57.11;95304.59;5070596;28;20044;-60
2021/04/26 03:42:35;;;;;;;8.70;5.13;;;;;;;4.55;56.98;95300.38;5071770;28;20121;-60
2021/04/26 03:45:01;;;;;;;6.90;5.10;;;;;;;4.63;57.53;95329.63;5070751;28;20490;-60
2021/04/26 03:47:26;;;;;;;8.18;5.30;;;;;;;4.52;57.21;95311.44;5071895;28;20029;-61
2021/04/26 03:49:52;;;;;;;8.68;5.25;;;;;;;4.47;57.31;95306.94;5073887;28;20028;-59
2021/04/26 03:52:17;;;;;;;8.50;5.43;;;;;;;4.62;57.35;95325.41;5070432;28;20433;-60
2021/04/26 03:54:43;;;;;;;12.00;6.25;;;;;;;4.75;56.81;95334.63;5071717;28;20139;-60
2021/04/26 03:57:08;;;;;;;8.25;5.50;;;;;;;4.71;56.90;95320.44;5071616;28;20048;-61
2021/04/26 03:59:33;;;;;;;13.27;5.72;;;;;;;4.64;57.33;95314.59;5071961;28;20107;-60
2021/04/26 04:01:59;;;;;;;7.38;5.35;;;;;;;4.56;57.79;95318.56;5073454;28;20462;-60
2021/04/26 04:04:24;;;;;;;7.80;4.93;;;;;;;4.30;58.59;95315.09;5070409;28;20033;-61
2021/04/26 04:06:50;;;;;;;10.38;6.47;;;;;;;4.28;58.44;95301.38;5071443;28;20040;-60
2021/04/26 04:09:17;;;;;;;11.30;5.50;;;;;;;4.21;58.96;95303.47;5070241;28;20047;-60
2021/04/26 04:11:43;;;;;;;8.05;6.00;;;;;;;4.33;58.44;95290.06;5071292;28;20171;-59
2021/04/26 04:14:09;;;;;;;7.60;5.38;;;;;;;4.49;57.92;95296.94;5072503;28;20049;-60
2021/04/26 04:16:34;;;;;;;8.43;5.40;;;;;;;4.49;57.19;95273.22;5071451;28;20477;-60
2021/04/26 04:19:00;;;;;;;8.23;5.85;;;;;;;4.64;56.73;95289.06;5070899;28;20037;-59
2021/04/26 04:21:26;;;;;;;10.13;5.70;;;;;;;4.61;56.10;95275.63;5070897;28;20444;-61
2021/04/26 04:23:52;;;;;;;8.45;5.85;;;;;;;4.80;56.28;95307.50;5069858;28;20450;-60
2021/04/26 04:26:17;;;;;;;7.68;5.70;;;;;;;4.89;55.88;95316.47;5073377;28;20085;-60
2021/04/26 04:28:43;;;;;;;8.88;5.50;;;;;;;4.81;55.53;95275.63;5071036;28;20044;-60
2021/04/26 04:31:08;;;;;;;9.52;5.85;;;;;;;5.08;55.08;95319.38;5071074;28;20513;-61
2021/04/26 04:33:34;;;;;;;8.90;5.85;;;;;;;5.10;55.24;95296.97;5069663;28;20029;-61
2021/04/26 04:36:00;;;;;;;6.60;5.25;;;;;;;5.47;54.14;95330.13;5071201;28;20039;-61
2021/04/26 04:38:26;;;;;;;6.95;5.28;;;;;;;5.67;53.87;95313.47;5072160;28;20031;-61
2021/04/26 04:40:56;;;;;;;10.63;5.25;;;;;;;5.43;53.21;95279.78;5071336;28;20048;-61
2021/04/26 04:43:22;;;;;;;8.63;4.97;;;;;;;5.85;53.07;95322.69;5070782;28;20033;-60
2021/04/26 04:45:47;;;;;;;6.82;5.25;;;;;;;6.02;52.12;95312.59;5069662;28;20577;-60
2021/04/26 04:48:13;;;;;;;10.40;5.40;;;;;;;5.87;52.13;95296.78;5070852;28;20039;-61
2021/04/26 04:50:38;;;;;;;7.03;5.38;;;;;;;5.83;51.67;95296.53;5070784;28;20020;-60
2021/04/26 04:53:04;;;;;;;12.02;5.43;;;;;;;5.91;51.82;95308.41;5072359;28;20021;-61
2021/04/26 04:55:29;;;;;;;9.05;5.65;;;;;;;6.06;51.20;95303.09;5069345;28;20055;-59
2021/04/26 04:57:55;;;;;;;9.00;6.18;;;;;;;6.25;50.81;95303.28;5070516;28;20371;-61
2021/04/26 05:00:22;;;;;;;6.82;5.38;;;;;;;6.29;50.59;95299.00;5070785;28;20040;-61
2021/04/26 05:02:47;;;;;;;9.00;5.25;;;;;;;6.27;50.19;95303.00;5070573;28;20044;-62
2021/04/26 05:05:13;;;;;;;10.18;5.82;;;;;;;6.51;49.83;95319.78;5071296;28;20032;-61
2021/04/26 05:07:38;;;;;;;10.73;5.32;;;;;;;6.34;49.79;95298.97;5070347;28;20123;-62
2021/04/26 05:10:05;;;;;;;10.80;5.68;;;;;;;6.37;50.27;95306.38;5070659;28;20124;-60
2021/04/26 05:12:30;;;;;;;6.28;4.95;;;;;;;6.51;49.82;95314.50;5070300;28;20039;-61
2021/04/26 05:14:56;;;;;;;8.15;5.15;;;;;;;6.39;49.81;95291.00;5070413;28;20397;-62
2021/04/26 05:17:21;;;;;;;7.90;5.68;;;;;;;6.41;49.50;95280.97;5072101;28;20433;-63
2021/04/26 05:19:47;;;;;;;9.30;6.00;;;;;;;6.52;49.80;95316.06;5070329;28;20040;-66
2021/04/26 05:22:12;;;;;;;7.32;5.43;;;;;;;6.52;49.64;95294.91;5069787;28;20029;-62
2021/04/26 05:24:41;;;;;;;7.40;5.40;;;;;;;6.32;49.80;95269.41;5067458;28;20037;-62
2021/04/26 05:27:07;;;;;;;6.82;5.13;;;;;;;6.54;49.41;95287.50;5061393;28;20089;-63
2021/04/26 05:29:32;;;;;;;6.65;5.45;;;;;;;6.67;49.33;95308.03;5068550;28;20020;-62
2021/04/26 05:31:58;;;;;;;8.05;5.30;;;;;;;6.75;48.98;95299.50;5071831;28;20059;-62
2021/04/26 05:34:23;;;;;;;8.10;4.95;;;;;;;6.84;49.22;95309.50;5069667;28;20051;-62
2021/04/26 05:36:48;;;;;;;12.80;5.18;;;;;;;6.48;49.27;95299.16;5069910;28;20465;-61
2021/04/26 05:39:14;;;;;;;8.60;5.40;;;;;;;6.55;49.29;95317.34;5085397;28;20028;-62
2021/04/26 05:41:39;;;;;;;9.32;5.18;;;;;;;6.35;50.12;95311.16;5068446;28;20161;-62
2021/04/26 05:44:05;;;;;;;10.00;5.50;;;;;;;6.47;49.41;95287.81;5071828;28;20107;-63
2021/04/26 05:46:30;;;;;;;9.35;5.40;;;;;;;6.60;49.12;95283.75;5085435;28;20549;-63
2021/04/26 05:48:56;;;;;;;9.95;5.82;;;;;;;7.02;48.48;95299.06;5068608;28;20120;-63
2021/04/26 05:51:22;;;;;;;9.88;5.50;;;;;;;7.10;48.08;95284.44;5067954;28;20515;-62
2021/04/26 05:53:47;;;;;;;15.02;5.47;;;;;;;7.14;48.28;95280.16;5067524;28;20040;-63
2021/04/26 05:56:13;;;;;;;7.55;5.50;;;;;;;7.04;47.89;95302.22;5076530;23;20004;-62
2021/04/26 05:58:38;;;;;;;9.95;5.57;;;;;;;7.14;48.35;95300.53;5028998;28;20045;-63
2021/04/26 06:01:04;;;;;;;9.15;5.38;;;;;;;7.30;47.20;95304.63;5014346;28;20129;-63
2021/04/26 06:03:29;;;;;;;18.98;5.65;;;;;;;7.27;46.99;95282.19;5009419;28;20188;-62
2021/04/26 06:05:56;;;;;;;5.55;5.05;;;;;;;7.21;46.89;95246.22;5008097;28;20041;-63
2021/04/26 06:08:21;;;;;;;7.22;5.75;;;;;;;7.44;46.14;95260.56;5011362;28;21012;-64
2021/04/26 06:10:47;;;;;;;6.05;4.68;;;;;;;7.88;46.13;95309.06;5009776;28;20571;-64
2021/04/26 06:13:12;;;;;;;6.68;4.97;;;;;;;7.50;45.77;95259.44;5009216;28;20088;-63
2021/04/26 06:15:37;;;;;;;13.65;5.65;;;;;;;7.52;46.38;95290.91;5009543;28;20459;-64
2021/04/26 06:18:15;;;;;;;8.00;5.00;;;;;;;7.23;46.54;95310.25;5009264;28;20034;-62
2021/04/26 06:20:42;;;;;;;14.05;5.45;;;;;;;7.25;46.89;95313.41;5009208;28;20030;-63
2021/04/26 06:23:08;;;;;;;8.20;5.55;;;;;;;7.19;46.40;95276.69;5011089;28;20030;-65
2021/04/26 06:25:36;;;;;;;5.50;4.63;;;;;;;7.65;46.64;95306.16;5025369;28;20112;-65
2021/04/26 06:28:01;;;;;;;8.60;5.60;;;;;;;7.61;46.84;95291.88;5028558;28;20034;-64
2021/04/26 06:30:27;;;;;;;7.43;5.68;;;;;;;7.78;45.50;95297.53;5020694;28;20499;-64
2021/04/26 06:32:52;;;;;;;11.65;5.28;;;;;;;7.81;45.64;95298.81;5008885;28;20076;-64
2021/04/26 06:35:18;;;;;;;10.57;5.10;;;;;;;8.01;45.29;95308.41;5011082;28;20083;-64
2021/04/26 06:37:43;;;;;;;9.95;4.70;;;;;;;8.20;45.47;95305.81;5008855;28;20037;-63
2021/04/26 06:40:09;;;;;;;11.20;4.82;;;;;;;8.12;45.50;95307.19;5023050;28;20037;-63
2021/04/26 06:42:34;;;;;;;12.73;5.47;;;;;;;7.50;46.01;95282.47;5028585;28;20045;-63
2021/04/26 06:45:00;;;;;;;10.30;5.28;;;;;;;7.69;45.92;95266.66;5023673;28;20095;-63
2021/04/26 06:47:25;;;;;;;12.68;5.93;;;;;;;8.06;45.20;95289.81;5008771;28;20026;-62
2021/04/26 06:49:50;;;;;;;7.60;4.65;;;;;;;7.96;45.83;95276.69;5010984;28;20030;-65
2021/04/26 06:52:16;;;;;;;9.30;5.30;;;;;;;7.93;45.60;95271.94;5009672;28;20037;-64
2021/04/26 06:54:41;;;;;;;9.43;4.88;;;;;;;8.21;45.09;95279.00;5020573;28;20044;-64
2021/04/26 06:57:07;;;;;;;6.68;5.07;;;;;;;8.12;44.49;95278.06;5028124;28;20060;-63
2021/04/26 06:59:32;;;;;;;7.55;4.80;;;;;;;8.51;44.37;95300.91;5029692;28;20108;-64
2021/04/26 07:01:57;;;;;;;8.77;5.05;;;;;;;8.53;44.32;95280.19;5030876;28;20506;-63
2021/04/26 07:04:23;;;;;;;7.88;4.90;;;;;;;8.31;44.18;95248.94;5011908;28;20068;-63
2021/04/26 07:06:48;;;;;;;6.95;5.05;;;;;;;8.65;44.38;95279.75;5028309;28;20044;-63
2021/04/26 07:09:14;;;;;;;10.55;5.07;;;;;;;8.67;44.27;95307.56;5022844;28;20030;-64
2021/04/26 07:11:40;;;;;;;10.77;5.03;;;;;;;8.54;44.18;95313.59;5010264;28;20046;-64
2021/04/26 07:14:05;;;;;;;6.22;5.10;;;;;;;8.58;44.44;95301.34;5031467;28;20489;-63
2021/04/26 07:16:31;;;;;;;8.25;5.57;;;;;;;8.74;43.55;95309.84;5029359;28;20065;-64
2021/04/26 07:18:57;;;;;;;6.45;5.00;;;;;;;9.07;43.97;95303.53;5016941;28;20030;-63
2021/04/26 07:21:22;;;;;;;7.25;4.68;;;;;;;9.18;42.61;95300.72;5008923;28;20038;-63
2021/04/26 07:23:48;;;;;;;7.90;4.72;;;;;;;8.92;43.29;95293.16;5009635;28;20042;-64
2021/04/26 07:26:13;;;;;;;8.68;4.57;;;;;;;8.68;43.61;95290.59;5011543;28;20427;-63
2021/04/26 07:28:39;;;;;;;8.50;5.07;;;;;;;8.71;43.76;95313.88;5027183;28;20050;-63
2021/04/26 07:31:04;;;;;;;9.05;5.50;;;;;;;8.88;43.15;95305.41;5015641;28;20081;-61
2021/04/26 07:33:29;;;;;;;14.90;5.80;;;;;;;9.22;42.83;95304.38;5007957;28;20377;-63
2021/04/26 07:35:55;;;;;;;8.25;4.78;;;;;;;9.03;43.07;95291.91;5009575;28;20084;-62
2021/04/26 07:38:20;;;;;;;9.55;4.80;;;;;;;8.87;43.06;95297.75;5011317;28;20016;-62
2021/04/26 07:40:46;;;;;;;11.30;5.10;;;;;;;9.23;43.70;95311.25;5009867;28;20034;-63
2021/04/26 07:43:11;;;;;;;6.28;4.72;;;;;;;9.48;42.25;95308.16;5009425;28;20089;-64
2021/04/26 07:45:37;;;;;;;12.52;5.30;;;;;;;9.43;42.13;95283.56;5019410;28;20033;-64
2021/04/26 07:48:02;;;;;;;10.75;5.25;;;;;;;9.23;41.69;95272.22;5023777;28;20093;-65
2021/04/26 07:50:28;;;;;;;10.68;5.15;;;;;;;9.65;42.21;95310.25;5009333;28;20460;-63
2021/04/26 07:52:54;;;;;;;6.13;5.38;;;;;;;9.77;41.90;95291.94;5029695;28;20527;-66
2021/04/26 07:55:19;;;;;;;5.95;5.05;;;;;;;10.15;41.02;95305.06;5029128;28;20060;-66
2021/04/26 07:57:45;;;;;;;9.60;4.95;;;;;;;9.96;40.93;95310.47;5017971;28;20042;-63
2021/04/26 08:00:11;;;;;;;11.63;5.15;;;;;;;10.16;40.73;95282.69;5009226;28;20030;-64
2021/04/26 08:02:36;;;;;;;12.05;4.60;;;;;;;9.98;40.05;95273.75;5008946;28;20129;-64
2021/04/26 08:05:02;;;;;;;5.78;4.60;;;;;;;10.39;40.48;95283.59;4993606;28;20856;-63
2021/04/26 08:07:28;;;;;;;9.38;4.85;;;;;;;10.61;39.08;95278.31;5025978;28;20066;-63
2021/04/26 08:09:53;;;;;;;8.73;5.18;;;;;;;10.49;40.84;95303.84;5015711;28;20653;-65
2021/04/26 08:12:20;;;;;;;7.30;5.38;;;;;;;10.31;40.85;95277.09;5008401;28;20470;-64
2021/04/26 08:14:46;;;;;;;8.95;5.18;;;;;;;10.32;40.72;95293.81;5014728;28;20026;-64
2021/04/26 08:17:11;;;;;;;7.72;5.45;;;;;;;10.46;40.17;95285.84;5034462;28;20489;-64
2021/04/26 08:19:36;;;;;;;6.93;5.22;;;;;;;10.49;40.11;95298.50;5014141;28;20046;-65
2021/04/26 08:22:02;;;;;;;14.50;4.85;;;;;;;10.63;40.19;95304.59;5025393;28;20055;-63
2021/04/26 08:24:28;;;;;;;5.82;5.03;;;;;;;10.13;40.54;95300.03;5032669;28;20053;-63
2021/04/26 08:26:55;;;;;;;11.85;5.38;;;;;;;10.50;39.83;95300.13;5032246;28;20044;-60
2021/04/26 08:29:21;;;;;;;10.48;5.53;;;;;;;10.03;41.26;95268.34;5034208;28;20021;-61
2021/04/26 08:31:46;;;;;;;9.43;4.78;;;;;;;10.26;41.40;95271.09;5031953;28;20061;-62
2021/04/26 08:34:12;;;;;;;9.48;5.07;;;;;;;10.46;40.57;95260.03;5030684;28;20128;-66
2021/04/26 08:36:38;;;;;;;12.18;5.13;;;;;;;11.07;39.39;95268.47;5022217;28;20038;-63
2021/04/26 08:39:04;;;;;;;8.23;5.28;;;;;;;11.15;38.23;95289.03;4993931;28;20053;-61
2021/04/26 08:41:29;;;;;;;13.57;5.45;;;;;;;10.84;37.99;95276.44;5011824;28;20030;-61
2021/04/26 08:43:55;;;;;;;5.20;4.57;;;;;;;10.64;39.32;95274.25;5014390;28;20033;-61
2021/04/26 08:46:20;;;;;;;8.98;4.47;;;;;;;10.88;38.30;95287.28;5012252;28;20037;-60
2021/04/26 08:48:45;;;;;;;5.63;4.57;;;;;;;11.24;37.92;95271.25;5011797;28;20045;-60
2021/04/26 08:51:11;;;;;;;12.38;4.68;;;;;;;11.41;36.84;95292.66;5011106;28;20053;-60
2021/04/26 08:53:36;;;;;;;10.23;4.88;;;;;;;11.60;36.80;95275.66;5013497;28;20156;-58
2021/04/26 08:56:06;;;;;;;9.90;4.95;;;;;;;11.96;36.95;95292.28;5033727;28;20025;-60
2021/04/26 08:58:31;;;;;;;7.47;4.35;;;;;;;11.56;35.88;95285.34;5014113;28;20114;-60
2021/04/26 09:00:57;;;;;;;7.45;4.53;;;;;;;11.37;36.38;95288.25;5023976;28;20466;-60
2021/04/26 09:03:33;;;;;;;8.38;4.25;;;;;;;11.56;36.03;95296.78;5023514;28;20049;-61
2021/04/26 09:05:58;;;;;;;5.85;4.57;;;;;;;11.69;36.57;95297.81;5011674;28;20087;-60
2021/04/26 09:08:24;;;;;;;9.85;5.68;;;;;;;11.44;36.72;95286.72;5013644;28;20026;-60
2021/04/26 09:10:52;;;;;;;8.32;4.30;;;;;;;11.45;35.71;95288.28;5012426;28;20048;-60
2021/04/26 09:13:45;;;;;;;6.78;4.78;;;;;;;11.69;35.33;95284.47;5025313;28;20033;-60
2021/04/26 09:16:24;;;;;;;8.52;4.82;;;;;;;11.67;35.94;95281.34;5031250;28;20128;-60
2021/04/26 09:19:07;;;;;;;4.43;3.72;;;;;;;11.56;34.54;95293.34;5029730;28;20060;-60
2021/04/26 09:21:43;;;;;;;11.65;4.50;;;;;;;11.65;33.62;95260.31;5021393;28;20050;-60
2021/04/26 09:24:28;;;;;;;6.15;4.10;;;;;;;11.96;34.14;95289.63;5011145;28;20041;-62
2021/04/26 09:27:05;;;;;;;8.07;4.63;;;;;;;11.68;34.84;95229.63;5010990;28;20038;-62
2021/04/26 09:29:33;;;;;;;5.78;3.90;;;;;;;11.76;34.32;95274.16;5010920;28;20021;-61
2021/04/26 09:32:19;;;;;;;5.57;4.80;;;;;;;11.80;34.77;95251.13;5013181;28;20018;-60
2021/04/26 09:34:50;;;;;;;6.88;4.53;;;;;;;11.74;36.04;95279.03;5011378;28;20029;-59
2021/04/26 09:37:24;;;;;;;7.68;4.75;;;;;;;11.59;36.14;95282.09;5011078;28;20056;-60
2021/04/26 09:40:08;;;;;;;8.15;3.83;;;;;;;11.48;34.22;95278.13;5022759;28;20120;-60
2021/04/26 09:42:47;;;;;;;8.55;4.55;;;;;;;11.60;35.37;95268.44;5021627;28;20429;-59
2021/04/26 09:45:32;;;;;;;7.25;4.60;;;;;;;11.85;35.11;95268.91;5010966;28;20555;-60
2021/04/26 09:48:22;;;;;;;6.30;4.45;;;;;;;11.54;35.58;95274.22;5015350;28;20283;-59
2021/04/26 09:51:04;;;;;;;7.85;4.53;;;;;;;12.06;34.97;95261.91;5027428;28;20034;-60
2021/04/26 09:53:39;;;;;;;7.35;4.70;;;;;;;12.24;35.20;95265.41;4993900;28;20372;-59
2021/04/26 09:56:12;;;;;;;7.10;4.50;;;;;;;11.91;35.25;95268.44;5032436;28;20032;-59
2021/04/26 09:58:39;;;;;;;8.55;4.82;;;;;;;11.73;35.35;95255.34;5030461;28;20048;-59
2021/04/26 10:01:05;;;;;;;6.13;4.18;;;;;;;11.76;35.77;95260.84;5017029;28;20060;-58
2021/04/26 10:03:31;;;;;;;6.63;4.75;;;;;;;11.88;35.46;95252.31;5009195;28;20034;-59
2021/04/26 10:05:57;;;;;;;7.65;4.70;;;;;;;12.23;35.21;95258.47;5010806;28;20395;-61
2021/04/26 10:08:22;;;;;;;6.43;4.60;;;;;;;11.91;35.58;95252.44;5012430;28;20032;-62
2021/04/26 10:10:48;;;;;;;5.93;4.63;;;;;;;12.32;34.47;95240.63;5010734;28;20033;-63
2021/04/26 10:13:13;;;;;;;6.07;4.50;;;;;;;12.72;33.89;95264.50;5010431;28;20042;-60
2021/04/26 10:15:39;;;;;;;7.10;4.63;;;;;;;12.32;33.93;95245.94;5010517;28;20034;-61
2021/04/26 10:18:08;;;;;;;7.28;4.70;;;;;;;12.38;33.32;95231.38;5010477;28;20046;-65
2021/04/26 10:20:41;;;;;;;8.30;5.20;;;;;;;12.63;33.46;95240.47;5009783;28;20053;-61
2021/04/26 10:23:41;;;;;;;4.57;3.70;;;;;;;12.44;33.05;95243.47;5011743;28;20057;-61
2021/04/26 10:26:07;;;;;;;5.30;4.30;;;;;;;12.58;32.46;95221.97;5029319;28;20152;-60
2021/04/26 10:28:35;;;;;;;5.07;4.28;;;;;;;12.73;31.78;95244.72;5029632;28;20554;-61
2021/04/26 10:31:05;;;;;;;5.78;4.22;;;;;;;12.72;31.85;95241.28;5015876;28;20069;-61
2021/04/26 10:33:55;;;;;;;10.40;4.07;;;;;;;12.39;31.66;95237.50;5018865;28;20392;-60
2021/04/26 10:36:56;;;;;;;6.75;4.20;;;;;;;12.68;31.45;95234.22;5029480;28;20057;-62
2021/04/26 10:39:23;;;;;;;5.22;3.95;;;;;;;12.93;31.26;95229.97;5028642;28;20038;-60
2021/04/26 10:41:58;;;;;;;10.35;4.35;;;;;;;12.96;30.87;95230.13;5027912;28;20041;-62
2021/04/26 10:44:39;;;;;;;5.45;4.03;;;;;;;12.93;31.22;95227.28;5030318;28;20025;-62
2021/04/26 10:47:15;;;;;;;6.18;3.80;;;;;;;12.92;31.28;95215.03;5029896;28;20404;-62
2021/04/26 10:49:41;;;;;;;8.82;4.38;;;;;;;12.68;31.99;95178.16;5029403;28;20587;-62
2021/04/26 10:52:31;;;;;;;6.68;4.15;;;;;;;13.25;32.16;95212.63;5029318;28;20042;-62
2021/04/26 10:54:57;;;;;;;7.53;4.30;;;;;;;13.00;31.78;95211.59;5029763;28;20041;-62
2021/04/26 10:57:39;;;;;;;5.63;4.43;;;;;;;13.13;31.24;95188.44;5021234;28;20057;-61
2021/04/26 11:00:20;;;;;;;4.60;3.92;;;;;;;13.05;31.04;95191.91;5009913;28;20049;-62
2021/04/26 11:02:55;;;;;;;6.45;4.82;;;;;;;12.83;32.11;95187.56;5009610;28;20100;-64
2021/04/26 11:05:28;;;;;;;5.93;3.95;;;;;;;12.99;31.75;95193.97;5011923;28;20030;-62
2021/04/26 11:08:01;;;;;;;8.48;4.22;;;;;;;12.81;30.76;95198.56;5029624;28;20029;-63
2021/04/26 11:10:27;;;;;;;4.78;3.45;;;;;;;12.89;31.21;95186.28;5012856;28;20173;-63
2021/04/26 11:12:52;;;;;;;5.47;3.42;;;;;;;12.82;31.18;95168.09;5009471;28;20129;-61
2021/04/26 11:15:19;;;;;;;6.57;4.10;;;;;;;13.41;31.05;95170.97;5016900;28;20040;-62
2021/04/26 11:17:46;;;;;;;8.85;4.40;;;;;;;12.99;29.98;95168.06;5026799;28;20040;-62
2021/04/26 11:20:18;;;;;;;8.32;4.78;;;;;;;13.43;30.70;95159.94;5011040;28;20034;-62
2021/04/26 11:22:43;;;;;;;5.65;4.35;;;;;;;13.91;30.02;95170.22;5009140;28;20046;-62
2021/04/26 11:25:29;;;;;;;5.30;4.75;;;;;;;14.06;30.08;95168.88;5009754;28;20046;-61
2021/04/26 11:27:56;;;;;;;11.65;4.40;;;;;;;14.05;29.21;95164.63;5003912;28;20046;-63
2021/04/26 11:30:25;;;;;;;4.82;4.15;;;;;;;14.12;28.49;95164.13;5021717;28;20042;-63
2021/04/26 11:32:58;;;;;;;6.00;3.90;;;;;;;14.09;28.35;95149.50;5009463;28;20030;-63
2021/04/26 11:35:24;;;;;;;10.07;4.60;;;;;;;14.21;28.96;95159.50;4993618;28;20053;-62
2021/04/26 11:37:50;;;;;;;11.25;4.00;;;;;;;13.72;27.54;95161.88;5009263;28;20042;-63
2021/04/26 11:40:25;;;;;;;7.22;4.20;;;;;;;13.27;27.89;95151.69;5008806;28;20442;-62
2021/04/26 11:42:50;;;;;;;5.45;4.18;;;;;;;13.00;29.10;95166.19;5009115;28;20042;-64